createdAt,value
2022-08-27T00:01:01.560Z,4.93
2022-08-27T00:05:03.856Z,5.53
2022-08-27T00:09:05.983Z,5.90
2022-08-27T00:13:08.038Z,6.12
2022-08-27T00:17:10.028Z,6.35
2022-08-27T00:21:12.696Z,6.18
2022-08-27T00:25:14.869Z,6.68
2022-08-27T00:29:17.330Z,6.93
2022-08-27T00:33:19.328Z,5.97
2022-08-27T00:37:21.058Z,6.68
2022-08-27T00:41:23.440Z,8.50
2022-08-27T00:45:26.620Z,7.12
2022-08-27T00:49:37.212Z,9.48
2022-08-27T00:53:39.421Z,8.90
2022-08-27T00:57:43.026Z,11.10
2022-08-27T01:02:05.259Z,11.38
2022-08-27T01:06:11.242Z,10.82
2022-08-27T01:10:21.224Z,10.43
2022-08-27T01:14:24.322Z,10.32
2022-08-27T01:18:29.869Z,9.55
2022-08-27T01:23:11.457Z,8.70
2022-08-27T01:27:21.335Z,8.40
2022-08-27T01:31:27.028Z,7.95
2022-08-27T01:35:28.923Z,7.78
2022-08-27T01:39:30.659Z,8.43
2022-08-27T01:43:33.647Z,8.30
2022-08-27T01:47:36.432Z,8.60
2022-08-27T01:51:38.160Z,7.47
2022-08-27T01:55:41.506Z,7.37
2022-08-27T01:59:49.392Z,7.97
2022-08-27T02:03:51.179Z,8.32
2022-08-27T02:07:54.171Z,7.90
2022-08-27T02:11:55.900Z,7.97
2022-08-27T02:15:57.681Z,8.02
2022-08-27T02:20:00.783Z,7.75
2022-08-27T02:24:03.061Z,6.37
2022-08-27T02:28:06.894Z,5.55
2022-08-27T02:32:22.435Z,4.75
2022-08-27T02:36:30.414Z,4.25
2022-08-27T02:40:32.275Z,3.62
2022-08-27T02:44:35.554Z,3.42
2022-08-27T02:48:38.203Z,3.65
2022-08-27T02:52:39.991Z,3.40
2022-08-27T02:56:41.986Z,3.45
2022-08-27T03:00:45.018Z,3.10
2022-08-27T03:04:47.675Z,2.72
2022-08-27T03:08:52.560Z,3.05
2022-08-27T03:12:55.617Z,2.90
2022-08-27T03:17:20.751Z,3.97
2022-08-27T03:21:25.164Z,2.87
2022-08-27T03:25:26.938Z,2.15
2022-08-27T03:29:28.691Z,2.42
2022-08-27T03:33:33.603Z,2.30
2022-08-27T03:37:36.117Z,2.30
2022-08-27T03:41:45.480Z,2.85
2022-08-27T03:46:01.046Z,2.83
2022-08-27T03:50:05.970Z,2.40
2022-08-27T03:54:07.683Z,2.70
2022-08-27T03:58:10.864Z,2.62
2022-08-27T04:02:14.946Z,2.62
2022-08-27T04:06:16.941Z,2.45
2022-08-27T04:10:18.945Z,2.87
2022-08-27T04:14:26.875Z,2.47
2022-08-27T04:18:29.233Z,2.65
2022-08-27T04:22:31.093Z,2.47
2022-08-27T04:26:32.823Z,2.62
2022-08-27T04:30:38.221Z,2.50
2022-08-27T04:34:40.732Z,2.62
2022-08-27T04:38:42.479Z,3.00
2022-08-27T04:42:44.359Z,3.15
2022-08-27T04:46:47.905Z,2.62
2022-08-27T04:50:51.671Z,3.40
2022-08-27T04:54:53.930Z,3.20
2022-08-27T04:58:56.068Z,3.25
2022-08-27T05:02:57.790Z,3.58
2022-08-27T05:07:00.796Z,3.47
2022-08-27T05:11:02.608Z,3.60
2022-08-27T05:15:04.754Z,3.85
2022-08-27T05:19:08.767Z,3.40
2022-08-27T05:23:11.574Z,3.58
2022-08-27T05:27:13.287Z,3.78
2022-08-27T05:31:16.921Z,3.78
2022-08-27T05:35:19.619Z,4.40
2022-08-27T05:39:21.466Z,3.70
2022-08-27T05:43:23.236Z,4.20
2022-08-27T05:47:25.207Z,4.25
2022-08-27T05:51:35.997Z,4.47
2022-08-27T05:55:43.332Z,4.30
2022-08-27T06:04:06.376Z,4.22
2022-08-27T06:08:08.265Z,4.47
2022-08-27T06:12:10.050Z,4.62
2022-08-27T06:16:15.725Z,4.10
2022-08-27T06:20:18.388Z,4.00
2022-08-27T06:24:20.247Z,4.65
2022-08-27T06:28:23.381Z,4.40
2022-08-27T06:32:25.963Z,4.55
2022-08-27T06:36:29.356Z,4.90
2022-08-27T06:40:31.203Z,4.70
2022-08-27T06:44:33.827Z,4.05
2022-08-27T06:48:35.968Z,4.70
2022-08-27T06:52:37.735Z,4.95
2022-08-27T06:56:40.903Z,7.82
2022-08-27T07:00:48.816Z,4.80
2022-08-27T07:04:53.696Z,4.40
2022-08-27T07:08:58.931Z,4.15
2022-08-27T07:13:01.221Z,3.92
2022-08-27T07:17:03.192Z,4.28
2022-08-27T07:21:06.285Z,4.68
2022-08-27T07:25:12.223Z,4.10
2022-08-27T07:29:15.121Z,3.83
2022-08-27T07:33:16.891Z,3.53
2022-08-27T07:37:18.720Z,3.97
2022-08-27T07:41:20.506Z,4.12
2022-08-27T07:45:22.456Z,4.03
2022-08-27T07:49:27.317Z,3.37
2022-08-27T07:53:29.108Z,3.80
2022-08-27T07:57:32.243Z,5.57
2022-08-27T08:01:34.048Z,3.45
2022-08-27T08:05:35.798Z,3.87
2022-08-27T08:09:38.264Z,3.22
2022-08-27T08:13:40.328Z,2.92
2022-08-27T08:17:42.316Z,2.95
2022-08-27T08:21:44.093Z,2.87
2022-08-27T08:25:45.806Z,3.20
2022-08-27T08:29:48.286Z,3.17
2022-08-27T08:33:50.431Z,3.12
2022-08-27T08:37:52.160Z,3.50
2022-08-27T08:42:02.715Z,2.95
2022-08-27T08:46:22.411Z,2.90
2022-08-27T08:50:34.670Z,2.83
2022-08-27T08:54:38.457Z,2.83
2022-08-27T08:58:48.140Z,2.67
2022-08-27T09:02:54.739Z,3.22
2022-08-27T09:07:05.431Z,2.80
2022-08-27T09:11:25.253Z,2.50
2022-08-27T09:15:34.605Z,2.53
2022-08-27T09:19:36.397Z,2.10
2022-08-27T09:23:57.341Z,3.10
2022-08-27T09:28:01.720Z,2.80
2022-08-27T09:32:10.464Z,2.17
2022-08-27T09:36:18.346Z,2.67
2022-08-27T09:40:32.133Z,2.65
2022-08-27T09:44:49.174Z,2.00
2022-08-27T09:48:53.899Z,1.80
2022-08-27T09:52:59.045Z,2.20
2022-08-27T09:57:01.207Z,1.92
2022-08-27T10:01:10.922Z,2.15
2022-08-27T10:05:24.950Z,1.70
2022-08-27T10:09:42.562Z,1.85
2022-08-27T10:14:14.662Z,1.90
2022-08-27T10:18:46.164Z,1.77
2022-08-27T10:23:12.443Z,1.65
2022-08-27T10:27:23.144Z,1.73
2022-08-27T10:31:59.694Z,1.60
2022-08-27T10:36:16.663Z,2.08
2022-08-27T10:40:49.360Z,1.87
2022-08-27T10:45:09.897Z,1.95
2022-08-27T10:49:14.455Z,1.98
2022-08-27T10:53:59.247Z,3.70
2022-08-27T10:58:28.171Z,2.08
2022-08-27T11:02:44.310Z,2.30
2022-08-27T11:07:02.815Z,2.10
2022-08-27T11:15:42.579Z,1.70
2022-08-27T11:19:56.953Z,2.03
2022-08-27T11:24:11.680Z,1.77
2022-08-27T11:28:14.598Z,1.70
2022-08-27T11:32:28.968Z,1.45
2022-08-27T11:36:31.161Z,1.60
2022-08-27T11:40:49.233Z,1.90
2022-08-27T11:45:04.645Z,1.73
2022-08-27T11:49:07.676Z,1.77
2022-08-27T11:53:09.410Z,1.70
2022-08-27T11:57:34.066Z,1.83
2022-08-27T12:01:36.412Z,2.10
2022-08-27T12:05:48.733Z,1.70
2022-08-27T12:09:56.143Z,2.08
2022-08-27T12:14:18.577Z,2.35
2022-08-27T12:18:57.944Z,2.78
2022-08-27T12:23:42.724Z,3.08
2022-08-27T12:27:56.263Z,3.30
2022-08-27T12:32:29.775Z,4.35
2022-08-27T12:36:33.524Z,4.85
2022-08-27T12:40:52.197Z,3.72
2022-08-27T12:44:56.076Z,4.20
2022-08-27T12:49:10.086Z,4.20
2022-08-27T12:53:59.579Z,3.37
2022-08-27T12:58:34.024Z,3.47
2022-08-27T13:02:58.515Z,2.92
2022-08-27T13:07:00.396Z,2.33
2022-08-27T13:11:30.852Z,2.47
2022-08-27T13:15:34.051Z,2.70
2022-08-27T13:19:50.816Z,2.40
2022-08-27T13:24:06.779Z,2.30
2022-08-27T13:28:12.916Z,2.30
2022-08-27T13:32:15.267Z,2.50
2022-08-27T13:36:33.574Z,1.67
2022-08-27T13:40:50.172Z,2.12
2022-08-27T13:44:56.428Z,2.20
2022-08-27T13:49:00.121Z,2.20
2022-08-27T13:53:27.753Z,1.83
2022-08-27T13:57:45.638Z,1.42
2022-08-27T14:01:59.899Z,1.45
2022-08-27T14:06:02.343Z,1.50
2022-08-27T14:10:21.223Z,1.33
2022-08-27T14:14:23.040Z,1.27
2022-08-27T14:18:57.927Z,1.65
2022-08-27T14:22:58.538Z,2.10
2022-08-27T14:27:08.752Z,1.40
2022-08-27T14:31:11.650Z,1.60
2022-08-27T14:35:13.412Z,1.75
2022-08-27T14:39:27.169Z,1.42
2022-08-27T14:43:28.987Z,1.83
2022-08-27T14:47:33.803Z,1.65
2022-08-27T14:51:37.723Z,1.70
2022-08-27T14:55:39.690Z,1.50
2022-08-27T14:59:41.471Z,1.70
2022-08-27T15:03:49.574Z,1.73
2022-08-27T15:07:53.747Z,1.80
2022-08-27T15:11:57.178Z,1.60
2022-08-27T15:15:59.019Z,1.77
2022-08-27T15:20:00.835Z,1.42
2022-08-27T15:24:12.895Z,1.70
2022-08-27T15:28:14.668Z,1.65
2022-08-27T15:32:39.464Z,1.45
2022-08-27T15:36:41.699Z,1.50
2022-08-27T15:40:43.484Z,1.60
2022-08-27T15:44:48.444Z,1.30
2022-08-27T15:48:50.175Z,1.10
2022-08-27T15:52:56.120Z,1.50
2022-08-27T15:56:59.921Z,1.60
2022-08-27T16:01:10.957Z,1.40
2022-08-27T16:05:15.118Z,1.33
2022-08-27T16:09:17.142Z,1.40
2022-08-27T16:13:19.580Z,1.20
2022-08-27T16:17:21.400Z,1.45
2022-08-27T16:21:23.409Z,1.15
2022-08-27T16:25:26.277Z,1.52
2022-08-27T16:29:28.131Z,1.20
2022-08-27T16:33:30.370Z,1.37
2022-08-27T16:37:32.147Z,1.12
2022-08-27T16:41:33.966Z,1.10
2022-08-27T16:45:35.758Z,1.10
2022-08-27T16:49:56.110Z,1.00
2022-08-27T16:53:57.899Z,1.35
2022-08-27T16:58:00.116Z,1.08
2022-08-27T17:02:02.146Z,1.40
2022-08-27T17:06:04.597Z,1.33
2022-08-27T17:10:13.511Z,1.40
2022-08-27T17:14:15.875Z,1.25
2022-08-27T17:18:20.894Z,1.73
2022-08-27T17:22:22.651Z,1.40
2022-08-27T17:26:24.987Z,1.30
2022-08-27T17:30:26.715Z,1.20
2022-08-27T17:34:28.679Z,1.25
2022-08-27T17:38:32.720Z,1.12
2022-08-27T17:42:34.463Z,1.23
2022-08-27T17:46:36.274Z,1.00
2022-08-27T17:50:41.379Z,1.42
2022-08-27T17:54:46.582Z,1.55
2022-08-27T17:58:50.093Z,1.23
2022-08-27T18:02:54.141Z,1.17
2022-08-27T18:06:55.893Z,1.35
2022-08-27T18:10:58.100Z,1.60
2022-08-27T18:15:33.882Z,1.45
2022-08-27T18:19:37.808Z,1.20
2022-08-27T18:23:40.458Z,1.20
2022-08-27T18:27:43.888Z,1.23
2022-08-27T18:31:45.671Z,1.67
2022-08-27T18:35:47.487Z,1.23
2022-08-27T18:39:49.375Z,1.23
2022-08-27T18:43:51.568Z,1.73
2022-08-27T18:47:55.230Z,1.30
2022-08-27T18:51:57.251Z,1.92
2022-08-27T18:55:59.514Z,1.40
2022-08-27T19:00:01.296Z,1.37
2022-08-27T19:04:04.719Z,1.58
2022-08-27T19:08:06.728Z,1.67
2022-08-27T19:12:08.666Z,1.60
2022-08-27T19:16:36.432Z,1.50
2022-08-27T19:20:38.271Z,1.80
2022-08-27T19:24:40.065Z,1.60
2022-08-27T19:28:45.239Z,1.75
2022-08-27T19:32:47.326Z,1.67
2022-08-27T19:37:14.507Z,1.70
2022-08-27T19:45:30.043Z,1.65
2022-08-27T19:49:33.744Z,1.60
2022-08-27T19:53:35.709Z,2.12
2022-08-27T19:57:37.444Z,1.40
2022-08-27T20:01:40.688Z,1.70
2022-08-27T20:05:45.557Z,1.60
2022-08-27T20:09:47.975Z,1.40
2022-08-27T20:13:50.900Z,1.60
2022-08-27T20:17:53.298Z,1.30
2022-08-27T20:21:55.039Z,1.33
2022-08-27T20:26:01.208Z,1.50
2022-08-27T20:30:04.657Z,1.53
2022-08-27T20:34:07.394Z,1.75
2022-08-27T20:38:09.357Z,1.73
2022-08-27T20:42:11.520Z,1.87
2022-08-27T20:46:15.353Z,2.03
2022-08-27T20:50:17.991Z,1.90
2022-08-27T20:54:19.780Z,1.75
2022-08-27T20:58:43.909Z,1.70
2022-08-27T21:02:46.268Z,2.20
2022-08-27T21:06:48.040Z,1.92
2022-08-27T21:11:01.004Z,1.70
2022-08-27T21:15:05.887Z,1.80
2022-08-27T21:19:07.604Z,1.40
2022-08-27T21:23:09.364Z,1.98
2022-08-27T21:27:11.142Z,2.15
2022-08-27T21:31:13.019Z,1.50
2022-08-27T21:35:15.309Z,1.85
2022-08-27T21:39:17.265Z,1.50
2022-08-27T21:43:19.090Z,2.15
2022-08-27T21:47:20.837Z,1.85
2022-08-27T21:51:24.690Z,1.62
2022-08-27T21:55:26.878Z,1.55
2022-08-27T21:59:28.768Z,1.60
2022-08-27T22:03:31.227Z,1.55
2022-08-27T22:07:32.958Z,1.48
2022-08-27T22:11:35.432Z,1.58
2022-08-27T22:15:38.713Z,1.30
2022-08-27T22:19:40.472Z,1.25
2022-08-27T22:23:46.347Z,2.25
2022-08-27T22:27:48.076Z,1.92
2022-08-27T22:31:50.195Z,1.92
2022-08-27T22:35:52.635Z,1.35
2022-08-27T22:39:55.900Z,1.55
2022-08-27T22:43:57.940Z,1.30
2022-08-27T22:47:59.960Z,1.17
2022-08-27T22:52:01.869Z,1.58
2022-08-27T22:56:03.925Z,1.30
2022-08-27T23:00:12.043Z,1.77
2022-08-27T23:04:13.936Z,1.48
2022-08-27T23:08:15.989Z,1.30
2022-08-27T23:12:19.768Z,1.42
2022-08-27T23:16:21.639Z,1.60
2022-08-27T23:20:24.929Z,1.52
2022-08-27T23:24:27.140Z,1.00
2022-08-27T23:28:29.403Z,1.27
2022-08-27T23:32:31.465Z,1.12
2022-08-27T23:36:34.599Z,1.27
2022-08-27T23:40:36.495Z,1.40
2022-08-27T23:44:38.555Z,1.23
2022-08-27T23:48:40.326Z,1.58
2022-08-27T23:52:42.439Z,1.30
2022-08-27T23:56:44.308Z,1.33
